Time,TemperatureF,DewpointF,PressureIn,WindDirection,WindDirectionDegrees,WindSpeedMPH,WindSpeedGustMPH,Humidity,HourlyPrecipIn,Conditions,Clouds,dailyrainin,SoftwareType,DateUTC
2013-05-05 00:00:00,35.0,-99.9,-100.00,East,98,5.0,9.0,-999,-99.99,,,-99.99,,2013-05-05 06:00:00,
2013-05-05 00:32:00,35.0,-99.9,-100.00,East,98,5.0,9.0,-999,-99.99,,,-99.99,,2013-05-05 06:32:00,
2013-05-05 00:42:00,35.0,-99.9,-100.00,East,98,5.0,9.0,-999,-99.99,,,-99.99,,2013-05-05 06:42:00,
2013-05-05 00:52:00,35.0,-99.9,-100.00,East,98,5.0,9.0,-999,-99.99,,,-99.99,,2013-05-05 06:52:00,
2013-05-05 01:00:00,33.0,-99.9,-100.00,ENE,78,5.0,12.0,-999,-99.99,,,-99.99,,2013-05-05 07:00:00,
2013-05-05 01:32:00,33.0,-99.9,-100.00,ENE,78,5.0,12.0,-999,-99.99,,,-99.99,,2013-05-05 07:32:00,
2013-05-05 01:42:00,33.0,-99.9,-100.00,ENE,78,5.0,12.0,-999,-99.99,,,-99.99,,2013-05-05 07:42:00,
2013-05-05 01:52:00,33.0,-99.9,-100.00,ENE,78,5.0,12.0,-999,-99.99,,,-99.99,,2013-05-05 07:52:00,
2013-05-05 02:00:00,32.0,-99.9,-100.00,ESE,103,5.0,10.0,-999,-99.99,,,-99.99,,2013-05-05 08:00:00,
2013-05-05 02:32:00,32.0,-99.9,-100.00,ESE,103,5.0,10.0,-999,-99.99,,,-99.99,,2013-05-05 08:32:00,
2013-05-05 02:42:00,32.0,-99.9,-100.00,ESE,103,5.0,10.0,-999,-99.99,,,-99.99,,2013-05-05 08:42:00,
2013-05-05 02:53:00,32.0,-99.9,-100.00,ESE,103,5.0,10.0,-999,-99.99,,,-99.99,,2013-05-05 08:53:00,
2013-05-05 03:00:00,31.0,-99.9,-100.00,ESE,115,5.0,10.0,-999,-99.99,,,-99.99,,2013-05-05 09:00:00,
2013-05-05 03:33:00,31.0,-99.9,-100.00,ESE,115,5.0,10.0,-999,-99.99,,,-99.99,,2013-05-05 09:33:00,
2013-05-05 03:42:00,31.0,-99.9,-100.00,ESE,115,5.0,10.0,-999,-99.99,,,-99.99,,2013-05-05 09:42:00,
2013-05-05 03:53:00,31.0,-99.9,-100.00,ESE,115,5.0,10.0,-999,-99.99,,,-99.99,,2013-05-05 09:53:00,
2013-05-05 04:00:00,30.0,-99.9,-100.00,South,171,6.0,9.0,-999,-99.99,,,-99.99,,2013-05-05 10:00:00,
2013-05-05 04:32:00,30.0,-99.9,-100.00,South,171,6.0,9.0,-999,-99.99,,,-99.99,,2013-05-05 10:32:00,
2013-05-05 04:42:00,30.0,-99.9,-100.00,South,171,6.0,9.0,-999,-99.99,,,-99.99,,2013-05-05 10:42:00,
2013-05-05 04:53:00,30.0,-99.9,-100.00,South,171,6.0,9.0,-999,-99.99,,,-99.99,,2013-05-05 10:53:00,
2013-05-05 05:00:00,29.0,-99.9,-100.00,SSE,148,3.0,7.0,-999,-99.99,,,-99.99,,2013-05-05 11:00:00,
2013-05-05 05:32:00,29.0,-99.9,-100.00,SSE,148,3.0,7.0,-999,-99.99,,,-99.99,,2013-05-05 11:32:00,
2013-05-05 05:42:00,29.0,-99.9,-100.00,SSE,148,3.0,7.0,-999,-99.99,,,-99.99,,2013-05-05 11:42:00,
2013-05-05 05:52:00,29.0,-99.9,-100.00,SSE,148,3.0,7.0,-999,-99.99,,,-99.99,,2013-05-05 11:52:00,
2013-05-05 07:00:00,36.0,-99.9,-100.00,South,186,9.0,16.0,-999,-99.99,,,-99.99,,2013-05-05 13:00:00,
2013-05-05 07:32:00,36.0,-99.9,-100.00,South,186,9.0,16.0,-999,-99.99,,,-99.99,,2013-05-05 13:32:00,
2013-05-05 07:42:00,36.0,-99.9,-100.00,South,186,9.0,16.0,-999,-99.99,,,-99.99,,2013-05-05 13:42:00,
2013-05-05 07:52:00,36.0,-99.9,-100.00,South,186,9.0,16.0,-999,-99.99,,,-99.99,,2013-05-05 13:52:00,
2013-05-05 08:00:00,32.0,-99.9,-100.00,SSW,203,6.0,16.0,-999,-99.99,,,-99.99,,2013-05-05 14:00:00,
2013-05-05 08:32:00,32.0,-99.9,-100.00,SSW,203,6.0,16.0,-999,-99.99,,,-99.99,,2013-05-05 14:32:00,
2013-05-05 08:42:00,32.0,-99.9,-100.00,SSW,203,6.0,16.0,-999,-99.99,,,-99.99,,2013-05-05 14:42:00,
2013-05-05 08:52:00,32.0,-99.9,-100.00,SSW,203,6.0,16.0,-999,-99.99,,,-99.99,,2013-05-05 14:52:00,
2013-05-05 09:00:00,38.0,-99.9,-100.00,South,176,9.0,17.0,-999,-99.99,,,-99.99,,2013-05-05 15:00:00,
2013-05-05 09:33:00,38.0,-99.9,-100.00,South,176,9.0,17.0,-999,-99.99,,,-99.99,,2013-05-05 15:33:00,
2013-05-05 09:43:00,38.0,-99.9,-100.00,South,176,9.0,17.0,-999,-99.99,,,-99.99,,2013-05-05 15:43:00,
2013-05-05 09:54:00,38.0,-99.9,-100.00,South,176,9.0,17.0,-999,-99.99,,,-99.99,,2013-05-05 15:54:00,
2013-05-05 10:00:00,42.0,-99.9,-100.00,SSE,163,9.0,18.0,-999,-99.99,,,-99.99,,2013-05-05 16:00:00,
2013-05-05 10:32:00,42.0,-99.9,-100.00,SSE,163,9.0,18.0,-999,-99.99,,,-99.99,,2013-05-05 16:32:00,
2013-05-05 10:42:00,42.0,-99.9,-100.00,SSE,163,9.0,18.0,-999,-99.99,,,-99.99,,2013-05-05 16:42:00,
2013-05-05 10:53:00,42.0,-99.9,-100.00,SSE,163,9.0,18.0,-999,-99.99,,,-99.99,,2013-05-05 16:53:00,
2013-05-05 11:00:00,47.0,-99.9,-100.00,SSE,164,8.0,15.0,-999,-99.99,,,-99.99,,2013-05-05 17:00:00,
2013-05-05 11:32:00,47.0,-99.9,-100.00,SSE,164,8.0,15.0,-999,-99.99,,,-99.99,,2013-05-05 17:32:00,
2013-05-05 11:42:00,47.0,-99.9,-100.00,SSE,164,8.0,15.0,-999,-99.99,,,-99.99,,2013-05-05 17:42:00,
2013-05-05 11:52:00,47.0,-99.9,-100.00,SSE,164,8.0,15.0,-999,-99.99,,,-99.99,,2013-05-05 17:52:00,
2013-05-05 12:00:00,50.0,-99.9,-100.00,SE,140,6.0,15.0,-999,-99.99,,,-99.99,,2013-05-05 18:00:00,
2013-05-05 12:32:00,50.0,-99.9,-100.00,SE,140,6.0,15.0,-999,-99.99,,,-99.99,,2013-05-05 18:32:00,
2013-05-05 12:42:00,50.0,-99.9,-100.00,SE,140,6.0,15.0,-999,-99.99,,,-99.99,,2013-05-05 18:42:00,
2013-05-05 12:52:00,50.0,-99.9,-100.00,SE,140,6.0,15.0,-999,-99.99,,,-99.99,,2013-05-05 18:52:00,
2013-05-05 14:00:00,48.0,-99.9,-100.00,ESE,114,4.0,12.0,-999,-99.99,,,-99.99,,2013-05-05 20:00:00,
2013-05-05 14:32:00,48.0,-99.9,-100.00,ESE,114,4.0,12.0,-999,-99.99,,,-99.99,,2013-05-05 20:32:00,
2013-05-05 14:42:00,48.0,-99.9,-100.00,ESE,114,4.0,12.0,-999,-99.99,,,-99.99,,2013-05-05 20:42:00,
2013-05-05 14:52:00,48.0,-99.9,-100.00,ESE,114,4.0,12.0,-999,-99.99,,,-99.99,,2013-05-05 20:52:00,
2013-05-05 16:00:00,51.0,-99.9,-100.00,East,91,4.0,10.0,-999,-99.99,,,-99.99,,2013-05-05 22:00:00,
2013-05-05 16:34:00,51.0,-99.9,-100.00,East,91,4.0,10.0,-999,-99.99,,,-99.99,,2013-05-05 22:34:00,
2013-05-05 16:42:00,51.0,-99.9,-100.00,East,91,4.0,10.0,-999,-99.99,,,-99.99,,2013-05-05 22:42:00,
2013-05-05 16:52:00,51.0,-99.9,-100.00,East,91,4.0,10.0,-999,-99.99,,,-99.99,,2013-05-05 22:52:00,
2013-05-05 17:00:00,51.0,-99.9,-100.00,ENE,74,3.0,9.0,-999,-99.99,,,-99.99,,2013-05-05 23:00:00,
2013-05-05 17:32:00,51.0,-99.9,-100.00,ENE,74,3.0,9.0,-999,-99.99,,,-99.99,,2013-05-05 23:32:00,
2013-05-05 17:42:00,51.0,-99.9,-100.00,ENE,74,3.0,9.0,-999,-99.99,,,-99.99,,2013-05-05 23:42:00,
2013-05-05 17:52:00,51.0,-99.9,-100.00,ENE,74,3.0,9.0,-999,-99.99,,,-99.99,,2013-05-05 23:52:00,
2013-05-05 19:00:00,48.0,-99.9,-100.00,NNE,33,3.0,13.0,-999,-99.99,,,-99.99,,2013-05-06 01:00:00,
2013-05-05 19:32:00,48.0,-99.9,-100.00,NNE,33,3.0,13.0,-999,-99.99,,,-99.99,,2013-05-06 01:32:00,
2013-05-05 19:42:00,48.0,-99.9,-100.00,NNE,33,3.0,13.0,-999,-99.99,,,-99.99,,2013-05-06 01:42:00,
2013-05-05 19:52:00,48.0,-99.9,-100.00,NNE,33,3.0,13.0,-999,-99.99,,,-99.99,,2013-05-06 01:52:00,
2013-05-05 20:00:00,46.0,-99.9,-100.00,ESE,105,5.0,29.0,-999,-99.99,,,-99.99,,2013-05-06 02:00:00,
2013-05-05 20:32:00,46.0,-99.9,-100.00,ESE,105,5.0,29.0,-999,-99.99,,,-99.99,,2013-05-06 02:32:00,
2013-05-05 20:42:00,46.0,-99.9,-100.00,ESE,105,5.0,29.0,-999,-99.99,,,-99.99,,2013-05-06 02:42:00,
2013-05-05 20:52:00,46.0,-99.9,-100.00,ESE,105,5.0,29.0,-999,-99.99,,,-99.99,,2013-05-06 02:52:00,
2013-05-05 21:00:00,44.0,-99.9,-100.00,South,190,12.0,27.0,-999,-99.99,,,-99.99,,2013-05-06 03:00:00,
2013-05-05 21:33:00,44.0,-99.9,-100.00,South,190,12.0,27.0,-999,-99.99,,,-99.99,,2013-05-06 03:33:00,
2013-05-05 21:43:00,44.0,-99.9,-100.00,South,190,12.0,27.0,-999,-99.99,,,-99.99,,2013-05-06 03:43:00,
2013-05-05 21:53:00,44.0,-99.9,-100.00,South,190,12.0,27.0,-999,-99.99,,,-99.99,,2013-05-06 03:53:00,
2013-05-05 22:00:00,43.0,-99.9,-100.00,SE,137,5.0,18.0,-999,-99.99,,,-99.99,,2013-05-06 04:00:00,
2013-05-05 22:32:00,43.0,-99.9,-100.00,SE,137,5.0,18.0,-999,-99.99,,,-99.99,,2013-05-06 04:32:00,
2013-05-05 22:43:00,43.0,-99.9,-100.00,SE,137,5.0,18.0,-999,-99.99,,,-99.99,,2013-05-06 04:43:00,
2013-05-05 22:53:00,43.0,-99.9,-100.00,SE,137,5.0,18.0,-999,-99.99,,,-99.99,,2013-05-06 04:53:00,
2013-05-05 23:00:00,45.0,-99.9,-100.00,SSW,213,13.0,24.0,-999,-99.99,,,-99.99,,2013-05-06 05:00:00,
2013-05-05 23:32:00,45.0,-99.9,-100.00,SSW,213,13.0,24.0,-999,-99.99,,,-99.99,,2013-05-06 05:32:00,
2013-05-05 23:43:00,45.0,-99.9,-100.00,SSW,213,13.0,24.0,-999,-99.99,,,-99.99,,2013-05-06 05:43:00,
2013-05-05 23:52:00,45.0,-99.9,-100.00,SSW,213,13.0,24.0,-999,-99.99,,,-99.99,,2013-05-06 05:52:00,